Time;durP1;ratioP1;P1;durP2;ratioP2;P2;SDS_P1;SDS_P2;PMS_P1;PMS_P2;Temp;Humidity;BMP_temperature;BMP_pressure;BME280_temperature;BME280_humidity;BME280_pressure;Samples;Min_cycle;Max_cycle;Signal;HPM_P1;HPM_P2
2022/11/20 00:01:10;;;;;;;14.27;9.60;;;0.90;99.90;;;;;;5059265;28;20481;-71
2022/11/20 00:03:36;;;;;;;10.83;7.83;;;0.90;99.90;;;;;;5065415;28;20458;-68
2022/11/20 00:06:03;;;;;;;13.00;8.17;;;0.90;99.90;;;;;;5069360;28;21021;-69
2022/11/20 00:08:29;;;;;;;13.00;8.50;;;0.90;99.90;;;;;;5071293;28;20485;-70
2022/11/20 00:10:54;;;;;;;12.27;7.83;;;0.90;99.90;;;;;;5072757;28;20498;-70
2022/11/20 00:13:20;;;;;;;14.33;9.07;;;0.80;99.90;;;;;;5062713;28;20242;-70
2022/11/20 00:15:45;;;;;;;12.57;8.00;;;0.80;99.90;;;;;;5069965;28;20182;-69
2022/11/20 00:18:11;;;;;;;14.57;8.47;;;0.70;99.90;;;;;;5061718;28;20232;-69
2022/11/20 00:20:37;;;;;;;10.90;6.90;;;0.80;99.90;;;;;;5073957;28;20182;-69
2022/11/20 00:23:02;;;;;;;13.10;8.70;;;0.80;99.90;;;;;;5068750;28;20182;-70
2022/11/20 00:25:28;;;;;;;9.30;7.20;;;0.90;99.90;;;;;;5068928;28;20356;-70
2022/11/20 00:27:53;;;;;;;11.67;8.27;;;0.80;99.90;;;;;;5064727;28;20723;-70
2022/11/20 00:30:19;;;;;;;14.47;8.17;;;0.80;99.90;;;;;;5061628;28;20166;-70
2022/11/20 00:32:44;;;;;;;12.60;7.20;;;0.80;99.90;;;;;;5064300;28;20578;-68
2022/11/20 00:35:10;;;;;;;14.77;8.70;;;0.80;99.90;;;;;;5060289;28;20175;-69
2022/11/20 00:37:36;;;;;;;9.13;7.20;;;0.90;99.90;;;;;;5065459;28;20608;-70
2022/11/20 00:40:01;;;;;;;11.53;8.23;;;0.90;99.90;;;;;;5065632;28;20539;-69
2022/11/20 00:42:27;;;;;;;10.30;6.60;;;0.80;99.90;;;;;;5056598;28;20356;-69
2022/11/20 00:44:52;;;;;;;10.07;7.77;;;0.80;99.90;;;;;;5042189;28;20250;-69
2022/11/20 00:47:18;;;;;;;12.93;7.57;;;0.80;99.90;;;;;;5062016;28;20172;-69
2022/11/20 00:49:43;;;;;;;16.40;9.90;;;0.80;99.90;;;;;;5063865;28;20245;-69
2022/11/20 00:52:09;;;;;;;14.90;8.33;;;0.80;99.90;;;;;;5055035;28;20672;-69
2022/11/20 00:54:35;;;;;;;13.00;7.03;;;0.80;99.90;;;;;;5064056;28;20170;-68
2022/11/20 00:57:00;;;;;;;13.80;7.93;;;0.80;99.90;;;;;;5059284;28;20171;-68
2022/11/20 00:59:26;;;;;;;11.53;6.80;;;0.80;99.90;;;;;;5059717;28;20178;-68
2022/11/20 01:01:51;;;;;;;12.13;7.80;;;0.80;99.90;;;;;;5062619;28;20186;-68
2022/11/20 01:04:17;;;;;;;11.43;7.63;;;0.80;99.90;;;;;;5060599;28;20171;-68
2022/11/20 01:06:42;;;;;;;8.93;6.50;;;0.80;99.90;;;;;;5049018;28;20195;-69
2022/11/20 01:09:13;;;;;;;10.43;7.50;;;0.90;99.90;;;;;;5064880;28;20192;-69
2022/11/20 01:11:42;;;;;;;11.20;7.70;;;0.90;99.90;;;;;;5061739;28;20241;-69
2022/11/20 01:14:15;;;;;;;14.43;8.60;;;0.90;99.90;;;;;;5059587;28;20810;-67
2022/11/20 01:16:43;;;;;;;9.63;6.90;;;0.90;99.90;;;;;;5053918;28;20421;-68
2022/11/20 01:19:17;;;;;;;9.80;7.03;;;0.80;99.90;;;;;;5065994;28;20408;-69
2022/11/20 01:21:44;;;;;;;11.10;7.93;;;0.90;99.90;;;;;;5054549;28;20427;-68
2022/11/20 01:24:15;;;;;;;12.20;7.90;;;0.80;99.90;;;;;;5054414;28;20939;-68
2022/11/20 01:26:42;;;;;;;11.40;8.57;;;0.90;99.90;;;;;;5063008;28;20973;-69
2022/11/20 01:29:20;;;;;;;20.70;10.13;;;0.90;99.90;;;;;;5064634;28;20406;-69
2022/11/20 01:31:47;;;;;;;16.20;9.70;;;0.90;99.90;;;;;;5050074;28;20424;-69
2022/11/20 01:34:14;;;;;;;11.10;7.90;;;0.90;99.90;;;;;;5059433;28;20420;-68
2022/11/20 01:36:41;;;;;;;11.83;7.70;;;0.80;99.90;;;;;;5066251;28;20416;-68
2022/11/20 01:39:16;;;;;;;13.37;9.90;;;0.90;99.90;;;;;;5055495;28;20475;-69
2022/11/20 01:44:54;;;;;;;15.17;9.17;;;0.90;99.90;;;;;;5059121;28;20563;-68
2022/11/20 01:47:34;;;;;;;9.27;8.20;;;0.80;99.90;;;;;;5042213;28;20779;-69
2022/11/20 01:50:14;;;;;;;11.10;6.90;;;0.90;99.90;;;;;;5056033;28;20413;-69
2022/11/20 01:52:45;;;;;;;10.70;7.27;;;0.90;99.90;;;;;;5056617;28;20989;-68
2022/11/20 01:55:26;;;;;;;16.80;8.00;;;0.80;99.90;;;;;;5043936;28;20412;-68
2022/11/20 01:57:52;;;;;;;12.00;6.73;;;0.90;99.90;;;;;;5051838;28;20405;-69
2022/11/20 02:00:20;;;;;;;10.37;7.53;;;0.80;99.90;;;;;;5054609;28;20408;-70
2022/11/20 02:03:21;;;;;;;11.97;8.03;;;0.90;99.90;;;;;;5058955;28;20470;-68
2022/11/20 02:06:02;;;;;;;13.93;8.60;;;0.90;99.90;;;;;;5061117;28;20462;-70
2022/11/20 02:08:28;;;;;;;20.93;10.07;;;0.80;99.90;;;;;;5062537;28;20431;-69
2022/11/20 02:10:54;;;;;;;11.33;9.43;;;0.90;99.90;;;;;;5059543;28;20425;-69
2022/11/20 02:16:08;;;;;;;12.10;8.20;;;0.80;99.90;;;;;;5053729;28;20230;-68
2022/11/20 02:18:33;;;;;;;17.10;7.30;;;0.90;99.90;;;;;;5054248;28;20434;-68
2022/11/20 02:21:09;;;;;;;14.73;7.80;;;0.90;99.90;;;;;;5061984;28;20809;-68
2022/11/20 02:24:05;;;;;;;12.17;8.87;;;0.90;99.90;;;;;;5069471;28;20249;-69
2022/11/20 02:26:53;;;;;;;13.70;8.00;;;0.70;99.90;;;;;;5061998;28;20480;-69
2022/11/20 02:29:45;;;;;;;13.53;8.53;;;0.70;99.90;;;;;;5062642;28;20448;-68
2022/11/20 02:32:26;;;;;;;11.67;7.93;;;0.70;99.90;;;;;;5041911;28;20524;-68
2022/11/20 02:34:52;;;;;;;11.70;9.03;;;0.70;99.90;;;;;;5056492;28;20409;-69
2022/11/20 02:37:19;;;;;;;13.70;9.00;;;0.70;99.90;;;;;;5059623;28;20407;-68
2022/11/20 02:39:47;;;;;;;11.10;7.70;;;0.70;99.90;;;;;;5062543;28;20514;-68
2022/11/20 02:42:13;;;;;;;13.07;8.00;;;0.70;99.90;;;;;;5069483;22;20636;-67
2022/11/20 02:44:39;;;;;;;13.70;9.40;;;0.70;99.90;;;;;;5030132;28;20410;-68
2022/11/20 02:47:04;;;;;;;12.93;8.83;;;0.70;99.90;;;;;;5035197;28;20407;-67
2022/11/20 02:49:30;;;;;;;13.33;8.60;;;0.70;99.90;;;;;;5044125;28;20175;-67
2022/11/20 02:51:56;;;;;;;11.70;9.10;;;0.70;99.90;;;;;;5034945;28;20241;-67
2022/11/20 02:54:22;;;;;;;15.50;8.57;;;0.70;99.90;;;;;;5035256;28;20184;-67
2022/11/20 02:56:47;;;;;;;14.80;8.90;;;0.70;99.90;;;;;;5041848;28;20182;-67
2022/11/20 02:59:13;;;;;;;15.37;9.77;;;0.70;99.90;;;;;;5039056;28;20213;-68
2022/11/20 03:01:38;;;;;;;15.17;11.13;;;0.80;99.90;;;;;;5037578;28;20192;-69
2022/11/20 03:04:04;;;;;;;10.33;8.73;;;0.90;99.90;;;;;;5029156;28;20227;-69
2022/11/20 03:06:30;;;;;;;13.33;8.10;;;0.80;99.90;;;;;;5035786;28;20728;-68
2022/11/20 03:08:55;;;;;;;13.53;9.70;;;0.80;99.90;;;;;;5044913;28;20168;-68
2022/11/20 03:11:21;;;;;;;20.13;9.60;;;0.80;99.90;;;;;;5038590;28;20167;-66
2022/11/20 03:13:47;;;;;;;12.50;8.33;;;0.80;99.90;;;;;;5041552;28;20284;-67
2022/11/20 03:16:15;;;;;;;11.70;8.00;;;0.80;99.90;;;;;;5039953;28;20183;-68
2022/11/20 03:18:41;;;;;;;13.37;8.43;;;0.70;99.90;;;;;;5039142;28;20179;-69
2022/11/20 03:21:08;;;;;;;11.57;9.80;;;0.70;99.90;;;;;;5039305;28;20418;-67
2022/11/20 03:23:35;;;;;;;10.97;8.90;;;0.80;99.90;;;;;;5031875;28;21039;-72
2022/11/20 03:26:19;;;;;;;15.30;9.80;;;0.80;99.90;;;;;;5039316;28;20449;-68
2022/11/20 03:29:04;;;;;;;14.87;10.17;;;0.80;99.90;;;;;;5033861;28;20493;-68
2022/11/20 03:31:35;;;;;;;14.23;8.90;;;0.70;99.90;;;;;;5038620;28;20453;-68
2022/11/20 03:34:01;;;;;;;15.10;9.40;;;0.70;99.90;;;;;;5045478;28;20804;-68
2022/11/20 03:36:29;;;;;;;15.30;8.33;;;0.80;99.90;;;;;;5038883;28;20494;-68
2022/11/20 03:38:56;;;;;;;11.83;9.73;;;0.80;99.90;;;;;;5033065;28;20414;-68
2022/11/20 03:41:24;;;;;;;10.47;8.00;;;0.70;99.90;;;;;;5029375;28;20426;-67
2022/11/20 03:43:52;;;;;;;13.17;10.10;;;0.80;99.90;;;;;;5033926;28;20511;-68
2022/11/20 03:46:17;;;;;;;18.10;10.10;;;0.80;99.90;;;;;;5042283;28;20448;-67
2022/11/20 03:48:43;;;;;;;17.50;10.43;;;0.70;99.90;;;;;;5040615;28;20410;-68
2022/11/20 03:51:17;;;;;;;15.20;10.20;;;0.80;99.90;;;;;;5044676;28;20155;-67
2022/11/20 03:53:45;;;;;;;20.00;9.63;;;0.70;99.90;;;;;;5042213;28;20195;-69
2022/11/20 03:56:12;;;;;;;14.87;8.80;;;0.70;99.90;;;;;;5024438;28;20766;-68
2022/11/20 03:58:40;;;;;;;12.37;9.80;;;0.70;99.90;;;;;;5042832;28;20426;-69
2022/11/20 04:01:07;;;;;;;13.13;9.50;;;0.70;99.90;;;;;;5038575;28;20475;-69
2022/11/20 04:03:32;;;;;;;15.70;10.30;;;0.80;99.90;;;;;;5040605;28;20433;-68
2022/11/20 04:06:03;;;;;;;12.60;8.27;;;0.80;99.90;;;;;;5039222;28;20808;-67
2022/11/20 04:08:30;;;;;;;15.23;9.40;;;0.80;99.90;;;;;;5046670;28;20253;-68
2022/11/20 04:10:55;;;;;;;16.20;10.53;;;0.70;99.90;;;;;;5041088;28;20406;-68
2022/11/20 04:13:21;;;;;;;13.13;8.67;;;0.70;99.90;;;;;;5043849;28;20456;-68
2022/11/20 04:15:46;;;;;;;16.90;10.83;;;0.70;99.90;;;;;;5043363;28;20178;-67
2022/11/20 04:18:12;;;;;;;12.70;9.40;;;0.70;99.90;;;;;;5042193;28;20174;-68
2022/11/20 04:20:38;;;;;;;16.23;9.50;;;0.70;99.90;;;;;;5046737;28;20204;-68
2022/11/20 04:23:03;;;;;;;12.70;8.27;;;0.70;99.90;;;;;;5039538;28;20575;-68
2022/11/20 04:25:29;;;;;;;18.67;10.43;;;0.60;99.90;;;;;;5040281;28;20261;-68
2022/11/20 04:27:54;;;;;;;15.60;9.70;;;0.60;99.90;;;;;;5038398;28;20174;-67
2022/11/20 04:30:20;;;;;;;14.07;8.77;;;0.50;99.90;;;;;;5026503;28;20186;-68
2022/11/20 04:32:46;;;;;;;13.73;10.67;;;0.60;99.90;;;;;;5030062;28;20617;-67
2022/11/20 04:35:11;;;;;;;12.93;8.13;;;0.60;99.90;;;;;;5042506;28;20171;-67
2022/11/20 04:37:37;;;;;;;13.87;9.70;;;0.60;99.90;;;;;;5043819;28;20176;-67
2022/11/20 04:40:02;;;;;;;12.80;9.57;;;0.50;99.90;;;;;;5038018;28;20281;-68
2022/11/20 04:42:28;;;;;;;14.50;9.67;;;0.50;99.90;;;;;;5041339;28;20361;-68
2022/11/20 04:44:54;;;;;;;19.60;10.83;;;0.50;99.90;;;;;;5037416;28;20271;-68
2022/11/20 04:47:20;;;;;;;12.57;8.73;;;0.60;99.90;;;;;;5037606;28;20179;-68
2022/11/20 04:49:46;;;;;;;14.80;8.03;;;0.50;99.90;;;;;;5034179;28;20401;-68
2022/11/20 04:52:11;;;;;;;11.20;8.07;;;0.50;99.90;;;;;;5037550;28;20464;-69
2022/11/20 04:54:37;;;;;;;15.03;10.53;;;0.50;99.90;;;;;;5043408;28;20662;-68
2022/11/20 04:57:03;;;;;;;17.30;10.40;;;0.50;99.90;;;;;;5035152;28;20254;-69
2022/11/20 04:59:28;;;;;;;15.13;8.43;;;0.50;99.90;;;;;;5038658;28;20261;-68
2022/11/20 05:01:54;;;;;;;14.87;9.97;;;0.50;99.90;;;;;;5035486;28;20172;-68
2022/11/20 05:04:19;;;;;;;13.13;8.80;;;0.50;99.90;;;;;;5031384;28;20596;-68
2022/11/20 05:06:45;;;;;;;15.90;7.87;;;0.50;99.90;;;;;;5039666;28;20202;-67
2022/11/20 05:09:11;;;;;;;15.00;10.00;;;0.50;99.90;;;;;;5039896;28;20164;-68
2022/11/20 05:11:37;;;;;;;13.70;9.37;;;0.50;99.90;;;;;;5041744;28;20579;-68
2022/11/20 05:14:03;;;;;;;16.10;9.10;;;0.50;99.90;;;;;;5037035;28;20438;-68
2022/11/20 05:16:28;;;;;;;19.53;12.30;;;0.50;99.90;;;;;;5032881;28;20167;-67
2022/11/20 05:18:55;;;;;;;13.97;10.83;;;0.50;99.90;;;;;;5039544;28;20231;-67
2022/11/20 05:21:21;;;;;;;15.60;8.90;;;0.50;99.90;;;;;;5025008;28;20488;-68
2022/11/20 05:23:47;;;;;;;17.47;11.90;;;0.50;99.90;;;;;;5039402;28;20434;-68
2022/11/20 05:26:18;;;;;;;18.80;9.40;;;0.40;99.90;;;;;;5020348;28;20963;-68
2022/11/20 05:28:44;;;;;;;13.30;9.97;;;0.50;99.90;;;;;;5034455;28;20934;-68
2022/11/20 05:31:13;;;;;;;12.37;9.50;;;0.50;99.90;;;;;;5043455;28;20504;-67
2022/11/20 05:33:42;;;;;;;14.63;8.80;;;0.50;99.90;;;;;;5041487;28;21051;-68
2022/11/20 05:36:09;;;;;;;16.73;9.37;;;0.50;99.90;;;;;;5020715;28;20532;-68
2022/11/20 05:38:34;;;;;;;16.40;10.57;;;0.50;99.90;;;;;;5040632;28;20660;-68
2022/11/20 05:41:17;;;;;;;13.93;9.97;;;0.50;99.90;;;;;;5040337;28;20524;-68
2022/11/20 05:43:44;;;;;;;14.93;8.97;;;0.50;99.90;;;;;;5039987;28;20652;-67
2022/11/20 05:46:13;;;;;;;10.93;8.43;;;0.50;99.90;;;;;;5025755;28;20442;-68
2022/11/20 05:48:40;;;;;;;15.97;9.17;;;0.50;99.90;;;;;;5033223;28;20778;-68
2022/11/20 05:51:08;;;;;;;16.90;9.03;;;0.50;99.90;;;;;;5032565;28;20403;-67
2022/11/20 05:53:35;;;;;;;13.87;8.43;;;0.50;99.90;;;;;;5033517;28;20438;-67
2022/11/20 05:56:06;;;;;;;18.73;10.27;;;0.50;99.90;;;;;;5038745;28;20410;-68
2022/11/20 05:58:33;;;;;;;21.63;10.20;;;0.50;99.90;;;;;;5038837;28;20410;-68
2022/11/20 06:01:05;;;;;;;14.13;8.83;;;0.50;99.90;;;;;;5042163;28;20398;-69
2022/11/20 06:03:30;;;;;;;13.67;7.73;;;0.60;99.90;;;;;;5036988;28;20454;-68
2022/11/20 06:05:56;;;;;;;14.13;9.70;;;0.60;99.90;;;;;;5040698;28;20484;-68
2022/11/20 06:08:21;;;;;;;13.87;9.40;;;0.60;99.90;;;;;;5035893;28;20337;-68
2022/11/20 06:10:47;;;;;;;12.17;9.03;;;0.60;99.90;;;;;;5031039;28;20171;-67
2022/11/20 06:13:12;;;;;;;15.07;8.97;;;0.60;99.90;;;;;;5040961;28;20290;-68
2022/11/20 06:15:38;;;;;;;14.83;8.83;;;0.60;99.90;;;;;;5039292;28;20234;-68
2022/11/20 06:18:04;;;;;;;13.93;8.33;;;0.60;99.90;;;;;;5030469;28;20172;-68
2022/11/20 06:20:29;;;;;;;11.70;8.10;;;0.60;99.90;;;;;;5035625;28;20611;-67
2022/11/20 06:22:55;;;;;;;9.80;7.70;;;0.70;99.90;;;;;;5029985;28;20199;-67
2022/11/20 06:25:20;;;;;;;14.83;8.17;;;0.70;99.90;;;;;;5035647;28;20279;-67
2022/11/20 06:27:46;;;;;;;13.90;7.70;;;0.60;99.90;;;;;;5033854;28;20480;-67
2022/11/20 06:30:12;;;;;;;14.60;8.90;;;0.70;99.90;;;;;;5036347;28;20169;-67
2022/11/20 06:32:37;;;;;;;11.93;9.00;;;0.70;99.90;;;;;;5039404;28;20551;-67
2022/11/20 06:35:03;;;;;;;16.60;8.47;;;0.70;99.90;;;;;;5029682;28;20411;-67
2022/11/20 06:37:29;;;;;;;15.10;9.20;;;0.70;99.90;;;;;;5036577;28;20230;-67
2022/11/20 06:39:54;;;;;;;13.20;8.70;;;0.60;99.90;;;;;;5034149;28;20414;-68
2022/11/20 06:42:20;;;;;;;13.90;8.77;;;0.60;99.90;;;;;;5037273;28;20207;-68
2022/11/20 06:44:45;;;;;;;11.33;8.13;;;0.60;99.90;;;;;;5033215;28;20530;-66
2022/11/20 06:47:11;;;;;;;9.63;7.40;;;0.60;99.90;;;;;;5033078;28;20483;-68
2022/11/20 06:49:38;;;;;;;14.90;9.60;;;0.60;99.90;;;;;;5035034;28;20238;-68
2022/11/20 06:52:04;;;;;;;13.80;9.10;;;0.60;99.90;;;;;;5037636;28;20190;-68
2022/11/20 06:54:30;;;;;;;16.93;10.50;;;0.60;99.90;;;;;;5038979;28;20429;-68
2022/11/20 06:56:55;;;;;;;16.20;9.80;;;0.70;99.90;;;;;;5034340;28;20437;-67
2022/11/20 06:59:21;;;;;;;16.20;10.00;;;0.70;99.90;;;;;;5041315;28;20186;-68
2022/11/20 07:01:46;;;;;;;10.17;6.70;;;0.60;99.90;;;;;;5040067;28;20178;-68
2022/11/20 07:04:12;;;;;;;16.27;9.70;;;0.60;99.90;;;;;;5036900;28;20183;-67
2022/11/20 07:06:38;;;;;;;16.70;9.37;;;0.60;99.90;;;;;;5042425;28;20210;-67
2022/11/20 07:09:04;;;;;;;14.50;8.17;;;0.60;99.90;;;;;;5039119;28;20447;-68
2022/11/20 07:11:29;;;;;;;14.97;8.87;;;0.60;99.90;;;;;;5035576;28;20203;-68
2022/11/20 07:13:57;;;;;;;12.40;9.43;;;0.70;99.90;;;;;;5045179;28;20472;-67
2022/11/20 07:16:22;;;;;;;12.60;8.73;;;0.60;99.90;;;;;;5034677;28;20213;-70
2022/11/20 07:18:48;;;;;;;17.63;9.47;;;0.70;99.90;;;;;;5035061;28;20425;-66
2022/11/20 07:21:14;;;;;;;14.47;10.33;;;0.70;99.90;;;;;;5040981;28;20210;-67
2022/11/20 07:23:39;;;;;;;16.10;9.97;;;0.60;99.90;;;;;;5031657;28;20235;-68
2022/11/20 07:26:10;;;;;;;17.70;10.47;;;0.60;99.90;;;;;;5033830;28;20466;-68
2022/11/20 07:28:36;;;;;;;11.77;8.17;;;0.70;99.90;;;;;;5041517;28;20324;-68
2022/11/20 07:31:02;;;;;;;14.43;9.20;;;0.60;99.90;;;;;;5039639;28;20413;-68
2022/11/20 07:33:28;;;;;;;13.10;8.80;;;0.70;99.90;;;;;;5043184;28;20936;-68
2022/11/20 07:35:53;;;;;;;15.93;9.47;;;0.70;99.90;;;;;;5045305;28;20417;-68
2022/11/20 07:38:19;;;;;;;12.77;9.43;;;0.70;99.90;;;;;;5038352;28;20237;-68
2022/11/20 07:40:45;;;;;;;16.37;8.90;;;0.70;99.90;;;;;;5035196;28;20175;-66
2022/11/20 07:43:10;;;;;;;21.87;11.53;;;0.70;99.90;;;;;;5041748;28;20678;-68
2022/11/20 07:45:36;;;;;;;11.67;9.57;;;0.70;99.90;;;;;;5015959;28;20207;-69
2022/11/20 07:48:01;;;;;;;13.80;8.93;;;0.80;99.90;;;;;;5018645;28;20825;-68
2022/11/20 07:50:27;;;;;;;15.97;10.57;;;0.80;99.90;;;;;;5036276;28;20175;-69
2022/11/20 07:53:00;;;;;;;12.10;8.73;;;0.80;99.90;;;;;;5043327;28;20191;-69
2022/11/20 07:55:26;;;;;;;14.53;9.50;;;0.70;99.90;;;;;;5032413;28;20179;-67
2022/11/20 07:57:56;;;;;;;15.13;9.00;;;0.80;99.90;;;;;;5040792;28;20427;-68
2022/11/20 08:00:22;;;;;;;14.10;9.33;;;0.80;99.90;;;;;;5045998;28;20186;-66
2022/11/20 08:02:47;;;;;;;11.67;9.07;;;0.80;99.90;;;;;;5037183;28;20441;-69
2022/11/20 08:05:13;;;;;;;15.33;8.70;;;0.70;99.90;;;;;;5037014;28;20227;-67
2022/11/20 08:07:43;;;;;;;17.00;9.00;;;0.70;99.90;;;;;;5038057;28;20200;-68
2022/11/20 08:10:11;;;;;;;14.17;9.53;;;0.60;99.90;;;;;;5036426;28;20167;-69
2022/11/20 08:15:27;;;;;;;17.60;11.20;;;0.60;99.90;;;;;;5034162;28;20960;-67
2022/11/20 08:18:10;;;;;;;18.00;10.33;;;0.70;99.90;;;;;;5034794;28;20422;-68
2022/11/20 08:20:36;;;;;;;13.17;8.13;;;0.70;99.90;;;;;;5041662;28;20194;-67
2022/11/20 08:23:05;;;;;;;13.07;10.00;;;0.70;99.90;;;;;;5039517;28;20948;-69
2022/11/20 08:25:31;;;;;;;21.93;11.43;;;0.80;99.90;;;;;;5040597;28;20199;-68
2022/11/20 08:28:03;;;;;;;15.07;8.73;;;0.80;99.90;;;;;;5035329;28;20431;-68
2022/11/20 08:30:28;;;;;;;17.23;10.73;;;0.80;99.90;;;;;;5039369;28;20775;-67
2022/11/20 08:33:00;;;;;;;15.60;9.67;;;0.80;99.90;;;;;;5033184;28;20465;-69
2022/11/20 08:35:26;;;;;;;17.40;10.17;;;0.80;99.90;;;;;;5013378;28;20333;-68
2022/11/20 08:37:52;;;;;;;19.60;13.57;;;0.80;99.90;;;;;;5036060;28;20900;-69
2022/11/20 08:40:17;;;;;;;16.83;10.90;;;0.80;99.90;;;;;;5035902;28;20667;-68
2022/11/20 08:42:50;;;;;;;14.60;10.63;;;0.80;99.90;;;;;;5021937;28;20579;-68
2022/11/20 08:45:17;;;;;;;14.90;10.37;;;0.80;99.90;;;;;;5009424;28;20207;-69
2022/11/20 08:47:43;;;;;;;13.27;9.87;;;0.80;99.90;;;;;;5027006;28;20440;-69
2022/11/20 08:50:13;;;;;;;13.87;10.30;;;0.80;99.90;;;;;;5035458;28;20516;-69
2022/11/20 08:52:39;;;;;;;13.67;10.83;;;0.90;99.90;;;;;;5039776;28;20441;-68
2022/11/20 08:55:05;;;;;;;14.07;9.80;;;0.90;99.90;;;;;;5018319;23;20483;-71
2022/11/20 08:57:33;;;;;;;16.10;10.30;;;0.90;99.90;;;;;;5010659;28;20179;-71
2022/11/20 08:59:59;;;;;;;14.73;9.27;;;0.90;99.90;;;;;;5008701;28;20490;-71
2022/11/20 09:02:24;;;;;;;16.87;11.53;;;1.00;99.90;;;;;;5010114;28;20905;-70
2022/11/20 09:04:50;;;;;;;21.93;10.93;;;0.90;99.90;;;;;;4988047;28;20489;-71
2022/11/20 09:07:16;;;;;;;16.43;9.37;;;1.00;99.90;;;;;;5006029;28;20844;-70
2022/11/20 09:09:41;;;;;;;14.30;10.00;;;1.00;99.90;;;;;;5004464;28;20165;-71
2022/11/20 09:12:07;;;;;;;14.97;9.20;;;1.00;99.90;;;;;;5005519;28;20168;-71
2022/11/20 09:14:33;;;;;;;15.83;10.00;;;1.00;99.90;;;;;;4975683;28;20205;-71
2022/11/20 09:16:59;;;;;;;15.53;10.10;;;1.00;99.90;;;;;;5005889;28;20204;-71
2022/11/20 09:19:24;;;;;;;17.27;10.60;;;0.90;99.90;;;;;;4987581;28;20934;-71
2022/11/20 09:21:50;;;;;;;20.53;9.97;;;0.90;99.90;;;;;;4994682;28;20173;-71
2022/11/20 09:24:16;;;;;;;15.40;9.87;;;0.90;99.90;;;;;;4993529;28;20212;-71
2022/11/20 09:26:42;;;;;;;16.50;11.33;;;1.00;99.90;;;;;;4996310;28;20506;-71
2022/11/20 09:29:08;;;;;;;20.40;10.00;;;1.10;99.90;;;;;;4990660;28;20432;-71
2022/11/20 09:31:33;;;;;;;12.50;9.07;;;1.10;99.90;;;;;;4998536;28;20255;-70
2022/11/20 09:33:59;;;;;;;14.33;9.43;;;1.10;99.90;;;;;;4999212;28;20219;-71
2022/11/20 09:36:24;;;;;;;16.27;8.77;;;1.10;99.90;;;;;;5005221;28;20738;-71
2022/11/20 09:38:50;;;;;;;15.70;10.70;;;1.10;99.90;;;;;;4999681;28;20243;-69
2022/11/20 09:41:38;;;;;;;15.90;11.53;;;1.10;99.90;;;;;;4996810;28;20251;-71
2022/11/20 09:44:25;;;;;;;15.80;11.40;;;1.30;99.90;;;;;;4993175;28;20196;-71
2022/11/20 09:46:59;;;;;;;15.47;11.40;;;1.30;99.90;;;;;;4994042;28;20472;-71
2022/11/20 09:50:22;;;;;;;20.17;10.40;;;1.40;99.90;;;;;;4997405;28;20411;-71
2022/11/20 09:53:19;;;;;;;20.37;10.90;;;1.40;99.90;;;;;;4901179;29;20859;-68
2022/11/20 09:55:46;;;;;;;15.63;10.63;;;1.60;99.90;;;;;;4901133;29;20582;-69
2022/11/20 09:58:42;;;;;;;16.10;11.63;;;1.60;99.90;;;;;;4962584;28;20417;-69
2022/11/20 10:01:17;;;;;;;14.70;11.60;;;1.60;99.90;;;;;;4972182;28;20436;-70
2022/11/20 10:04:19;;;;;;;15.60;10.27;;;1.60;99.90;;;;;;4979241;28;21305;-68
2022/11/20 10:06:54;;;;;;;15.97;9.50;;;1.60;99.90;;;;;;4938751;28;20472;-70
2022/11/20 10:09:43;;;;;;;16.07;9.43;;;1.70;99.90;;;;;;4940479;28;20422;-69
2022/11/20 10:12:33;;;;;;;17.23;11.00;;;1.80;99.90;;;;;;4956478;28;20415;-69
2022/11/20 10:15:31;;;;;;;13.70;9.20;;;1.70;99.90;;;;;;4948532;28;20870;-69
2022/11/20 10:18:08;;;;;;;14.67;9.50;;;1.90;99.90;;;;;;4954186;28;20426;-70
2022/11/20 10:20:56;;;;;;;15.10;9.43;;;1.80;99.90;;;;;;4958482;28;20408;-70
2022/11/20 10:23:40;;;;;;;12.70;9.50;;;1.80;99.90;;;;;;4952529;28;20837;-70
2022/11/20 10:26:26;;;;;;;13.37;8.80;;;1.70;99.90;;;;;;4954384;28;20470;-69
2022/11/20 10:29:16;;;;;;;12.37;8.23;;;1.70;99.90;;;;;;4947057;28;20784;-69
2022/11/20 10:31:47;;;;;;;12.30;8.83;;;1.70;99.90;;;;;;4962855;28;20410;-69
2022/11/20 10:34:21;;;;;;;16.90;10.30;;;1.70;99.90;;;;;;4955376;28;20442;-67
2022/11/20 10:37:03;;;;;;;12.87;8.00;;;1.80;99.90;;;;;;4957833;28;20413;-69
2022/11/20 10:39:38;;;;;;;14.73;10.00;;;1.80;99.90;;;;;;4940821;28;20414;-68
2022/11/20 10:42:10;;;;;;;16.70;9.77;;;1.90;99.90;;;;;;4955992;28;20776;-69
2022/11/20 10:47:22;;;;;;;17.77;9.47;;;1.80;99.90;;;;;;4959180;28;20418;-69
2022/11/20 10:49:54;;;;;;;13.03;8.93;;;1.80;99.90;;;;;;4951934;28;21053;-69
2022/11/20 10:52:36;;;;;;;14.93;8.63;;;1.80;99.90;;;;;;4958313;28;20726;-69
2022/11/20 10:55:25;;;;;;;17.47;9.60;;;1.90;99.90;;;;;;4946364;28;20452;-70
2022/11/20 10:58:04;;;;;;;14.60;10.57;;;1.80;99.90;;;;;;4936436;28;20441;-68
2022/11/20 11:00:32;;;;;;;13.60;9.33;;;1.70;99.90;;;;;;4935643;28;20547;-68
2022/11/20 11:03:02;;;;;;;11.30;7.57;;;1.90;99.90;;;;;;4935466;28;21007;-68
2022/11/20 11:05:55;;;;;;;12.27;9.43;;;2.10;99.90;;;;;;4936756;28;20479;-68
2022/11/20 11:08:22;;;;;;;11.57;8.27;;;2.40;99.90;;;;;;4915883;28;20442;-68
2022/11/20 11:10:56;;;;;;;16.90;10.90;;;2.60;99.90;;;;;;4944217;28;20421;-68
2022/11/20 11:13:27;;;;;;;14.47;8.70;;;2.50;99.90;;;;;;4942385;28;20495;-68
2022/11/20 11:15:53;;;;;;;12.77;8.53;;;2.40;99.90;;;;;;4938307;28;20921;-68
2022/11/20 11:18:30;;;;;;;12.03;8.60;;;2.30;99.90;;;;;;4943894;28;20734;-68
2022/11/20 11:20:57;;;;;;;12.23;8.30;;;2.50;99.90;;;;;;4941211;28;20447;-68
2022/11/20 11:23:36;;;;;;;13.10;8.47;;;2.40;99.90;;;;;;4943823;28;20479;-68
2022/11/20 11:26:04;;;;;;;13.10;9.13;;;2.20;99.90;;;;;;4940974;28;20462;-68
2022/11/20 11:28:30;;;;;;;11.97;8.40;;;2.40;99.90;;;;;;4949674;28;20878;-69
2022/11/20 11:30:56;;;;;;;12.60;7.73;;;2.30;99.90;;;;;;4951193;28;20466;-68
2022/11/20 11:33:27;;;;;;;13.97;8.30;;;2.40;99.90;;;;;;4954472;28;20408;-68
2022/11/20 11:35:57;;;;;;;10.97;7.50;;;2.30;99.90;;;;;;4952974;28;20577;-68
2022/11/20 11:38:29;;;;;;;11.90;7.20;;;2.20;99.90;;;;;;4955615;28;20460;-68
2022/11/20 11:40:57;;;;;;;7.20;6.30;;;2.30;99.90;;;;;;4948091;28;20405;-68
2022/11/20 11:46:19;;;;;;;12.10;8.00;;;2.00;99.90;;;;;;4962344;28;20462;-68
2022/11/20 11:48:56;;;;;;;8.87;7.13;;;2.10;99.90;;;;;;4955380;28;20413;-68
2022/11/20 11:51:21;;;;;;;19.87;8.53;;;2.30;99.90;;;;;;4963623;28;20457;-68
2022/11/20 11:53:47;;;;;;;17.63;9.27;;;2.30;99.90;;;;;;4958156;28;20503;-68
2022/11/20 11:56:14;;;;;;;13.13;7.53;;;2.30;99.90;;;;;;4954120;28;20262;-69
2022/11/20 11:58:49;;;;;;;13.77;8.60;;;2.00;99.90;;;;;;4960227;28;20182;-68
2022/11/20 12:01:30;;;;;;;15.47;10.00;;;2.00;99.90;;;;;;4945568;28;20488;-69
2022/11/20 12:04:03;;;;;;;13.93;8.60;;;1.90;99.90;;;;;;4962266;28;20442;-70
2022/11/20 12:06:31;;;;;;;9.37;7.20;;;1.90;99.90;;;;;;4959934;28;20484;-70
2022/11/20 12:09:02;;;;;;;12.20;7.60;;;1.60;99.90;;;;;;4965794;28;20987;-70
2022/11/20 12:11:42;;;;;;;10.40;8.73;;;1.60;99.90;;;;;;4958766;28;20452;-70
2022/11/20 12:14:36;;;;;;;9.37;6.80;;;1.70;99.90;;;;;;4961973;28;21354;-70
2022/11/20 12:17:03;;;;;;;12.43;7.80;;;1.80;99.90;;;;;;4960662;29;20529;-69
2022/11/20 12:19:33;;;;;;;9.23;6.70;;;1.80;99.90;;;;;;4969213;28;20430;-71
2022/11/20 12:22:05;;;;;;;11.90;6.90;;;1.80;99.90;;;;;;4973781;28;20422;-71
2022/11/20 12:24:34;;;;;;;13.47;9.03;;;1.60;99.90;;;;;;4964665;28;20441;-71
2022/11/20 12:27:21;;;;;;;10.70;8.07;;;1.80;99.90;;;;;;4964681;28;20461;-71
2022/11/20 12:30:07;;;;;;;13.10;8.17;;;1.80;99.90;;;;;;4970273;28;20424;-71
2022/11/20 12:32:50;;;;;;;12.60;7.37;;;1.90;99.90;;;;;;4960509;28;20431;-70
2022/11/20 12:35:42;;;;;;;13.77;8.70;;;1.90;99.90;;;;;;4963941;28;20437;-70
2022/11/20 12:38:34;;;;;;;12.60;7.97;;;2.10;99.90;;;;;;4958520;28;20975;-70
2022/11/20 12:41:09;;;;;;;11.47;7.50;;;2.00;99.90;;;;;;4959202;28;20436;-70
2022/11/20 12:47:17;;;;;;;10.37;6.77;;;1.90;99.90;;;;;;4960548;28;20476;-70
2022/11/20 12:50:08;;;;;;;16.40;7.73;;;1.80;99.90;;;;;;4965440;28;20528;-70
2022/11/20 12:52:51;;;;;;;12.77;7.97;;;1.80;99.90;;;;;;4969350;28;20418;-70
2022/11/20 12:55:45;;;;;;;13.30;8.67;;;1.80;99.90;;;;;;4959104;28;20457;-71
2022/11/20 12:58:34;;;;;;;9.13;7.10;;;2.00;99.90;;;;;;4966059;28;20450;-70
2022/11/20 13:01:47;;;;;;;8.93;6.73;;;2.10;99.90;;;;;;4953420;28;20477;-70
2022/11/20 13:04:36;;;;;;;9.03;7.03;;;2.20;99.90;;;;;;4962065;28;20447;-70
2022/11/20 13:07:13;;;;;;;8.67;6.00;;;2.20;99.90;;;;;;4929574;28;20523;-69
2022/11/20 13:09:46;;;;;;;12.77;7.77;;;2.20;99.90;;;;;;4964321;28;20791;-69
2022/11/20 13:12:24;;;;;;;15.17;8.77;;;2.20;99.90;;;;;;4965395;28;20429;-68
2022/11/20 13:15:11;;;;;;;8.97;5.77;;;2.10;99.90;;;;;;4959814;28;20440;-69
2022/11/20 13:17:58;;;;;;;9.47;6.20;;;2.10;99.90;;;;;;4963048;28;20999;-69
2022/11/20 13:20:24;;;;;;;10.73;7.10;;;2.10;99.90;;;;;;4956711;28;20414;-65